TimeIDT,TemperatureF,Dew PointF,Humidity,Sea Level PressureIn,VisibilityMPH,Wind Direction,Wind SpeedMPH,Gust SpeedMPH,PrecipitationIn,Events,Conditions,WindDirDegrees,DateUTC
3:00 AM,86,46,15,29.72,12,North,2.3,,,,,10,2013-06-29 00:00:00
6:50 AM,82.4,57.2,42,29.77,-9999.0,NE,9.2,-,N/A,,Clear,40,2013-06-29 03:50:00
7:50 AM,84.2,59.0,42,29.77,-9999.0,NE,12.7,-,N/A,,Clear,40,2013-06-29 04:50:00
8:50 AM,86.0,60.8,43,29.77,-9999.0,NE,13.8,-,N/A,,Clear,40,2013-06-29 05:50:00
9:00 AM,87,60,30,29.76,,ENE,9.2,,,,,60,2013-06-29 06:00:00
9:50 AM,87.8,60.8,40,29.77,-9999.0,NE,17.3,-,N/A,,Clear,40,2013-06-29 06:50:00
10:50 AM,91.4,60.8,36,29.74,-9999.0,NE,13.8,-,N/A,,Clear,40,2013-06-29 07:50:00
11:50 AM,95.0,59.0,30,29.74,-9999.0,NE,15.0,-,N/A,,Clear,40,2013-06-29 08:50:00
12:50 PM,96.8,57.2,27,29.71,-9999.0,NE,15.0,-,N/A,,Clear,40,2013-06-29 09:50:00
1:50 PM,102.2,55.4,21,29.68,-9999.0,NNE,17.3,-,N/A,,Clear,30,2013-06-29 10:50:00
2:50 PM,104.0,51.8,17,29.68,-9999.0,NNE,16.1,-,N/A,,Clear,30,2013-06-29 11:50:00
3:00 PM,105,49,9,29.66,,NNE,8.1,,,,,30,2013-06-29 12:00:00
3:50 PM,104.0,50.0,16,29.65,-9999.0,NNE,18.4,-,N/A,,Clear,20,2013-06-29 12:50:00
4:50 PM,105.8,46.4,14,29.65,-9999.0,NNE,17.3,-,N/A,,Clear,20,2013-06-29 13:50:00
5:50 PM,105.8,50.0,15,29.62,-9999.0,NNE,20.7,-,N/A,,Clear,20,2013-06-29 14:50:00
6:50 PM,105.8,51.8,17,29.62,-9999.0,NNE,19.6,-,N/A,,Clear,20,2013-06-29 15:50:00
7:50 PM,100.4,53.6,21,29.65,-9999.0,NNE,19.6,-,N/A,,Clear,20,2013-06-29 16:50:00
8:50 PM,100.4,55.4,22,29.68,-9999.0,North,10.4,-,N/A,,Clear,350,2013-06-29 17:50:00
9:00 PM,98,53,14,29.67,12,NNW,6.9,,,,,340,2013-06-29 18:00:00
9:50 PM,96.8,51.8,22,29.71,-9999.0,NNE,16.1,-,N/A,,Clear,20,2013-06-29 18:50:00
10:50 PM,95.0,50.0,22,29.71,-9999.0,North,15.0,-,N/A,,Clear,10,2013-06-29 19:50:00
11:50 PM,91.4,48.2,23,29.74,-9999.0,NNE,11.5,-,N/A,,Clear,20,2013-06-29 20:50:00